DLH93T LWSK-EDDF
Flight info
| Callsign | DLH93T |
|---|---|
| Flight time | 2h 2m |
| Altitude | 38000 |
| Route | GOSTI DCT MAVAR DCT ALELU DCT MODRA DCT LURID DCT PETOV DCT GOLVA DCT SIMBA DCT AKINI T161 DEBHI DEBHI1C |
| Aircraft | A320/M-SDE2E3FGIJ1LORWXYZ/HB1 |
Departure
| Time | 2026-05-08 10:07 |
|---|---|
| Airport | Skopje International Airport (LWSK) |
Arrival
| Time | 2026-05-08 12:10 |
|---|---|
| Airport | Frankfurt Main Airport (EDDF) |
| Time | Latitude | Longitude | Altitude | Speed | Heading |
|---|---|---|---|---|---|
| 2026-05-08 09:45 | 41.96144 | 21.62567 | 793 ft | 0 kts | 76° |
| 2026-05-08 10:00 | 41.96140 | 21.62543 | 793 ft | 4 kts | 75° |
| 2026-05-08 10:00 | 41.96129 | 21.62519 | 793 ft | 4 kts | 33° |
| 2026-05-08 10:00 | 41.96105 | 21.62511 | 793 ft | 4 kts | 345° |
| 2026-05-08 10:01 | 41.96085 | 21.62519 | 793 ft | 0 kts | 346° |
| 2026-05-08 10:03 | 41.96119 | 21.62502 | 793 ft | 7 kts | 321° |
| 2026-05-08 10:03 | 41.96117 | 21.62444 | 792 ft | 7 kts | 231° |
| 2026-05-08 10:03 | 41.96072 | 21.62445 | 791 ft | 7 kts | 167° |
| 2026-05-08 10:03 | 41.96009 | 21.62468 | 791 ft | 12 kts | 164° |
| 2026-05-08 10:04 | 41.95909 | 21.62506 | 791 ft | 18 kts | 165° |
| 2026-05-08 10:04 | 41.95768 | 21.62550 | 788 ft | 24 kts | 166° |
| 2026-05-08 10:04 | 41.95606 | 21.62608 | 786 ft | 22 kts | 165° |
| 2026-05-08 10:04 | 41.95449 | 21.62665 | 783 ft | 25 kts | 170° |
| 2026-05-08 10:05 | 41.95278 | 21.62723 | 781 ft | 26 kts | 165° |
| 2026-05-08 10:05 | 41.95160 | 21.62739 | 778 ft | 16 kts | 213° |
| 2026-05-08 10:05 | 41.95122 | 21.62601 | 779 ft | 15 kts | 256° |
| 2026-05-08 10:05 | 41.95122 | 21.62520 | 781 ft | 5 kts | 326° |
| 2026-05-08 10:06 | 41.95148 | 21.62499 | 781 ft | 4 kts | 339° |
| 2026-05-08 10:06 | 41.95157 | 21.62495 | 781 ft | 0 kts | 342° |
| 2026-05-08 10:06 | 41.95170 | 21.62490 | 781 ft | 10 kts | 343° |
| 2026-05-08 10:07 | 41.95454 | 21.62392 | 782 ft | 81 kts | 346° |
| 2026-05-08 10:07 | 41.96222 | 21.62125 | 789 ft | 144 kts | 345° |
| 2026-05-08 10:07 | 41.97332 | 21.61749 | 1017 ft | 174 kts | 345° |
| 2026-05-08 10:07 | 41.98489 | 21.61354 | 1712 ft | 170 kts | 346° |
| 2026-05-08 10:08 | 41.99645 | 21.60955 | 2234 ft | 179 kts | 346° |
| 2026-05-08 10:08 | 42.00934 | 21.60712 | 2488 ft | 198 kts | 11° |
| 2026-05-08 10:08 | 42.02163 | 21.61642 | 2683 ft | 214 kts | 52° |
| 2026-05-08 10:08 | 42.02699 | 21.63538 | 2849 ft | 230 kts | 92° |
| 2026-05-08 10:09 | 42.02164 | 21.65576 | 3144 ft | 240 kts | 132° |
| 2026-05-08 10:09 | 42.00740 | 21.66705 | 3668 ft | 245 kts | 169° |
| 2026-05-08 10:09 | 41.99038 | 21.66538 | 4253 ft | 249 kts | 194° |
| 2026-05-08 10:09 | 41.97402 | 21.65748 | 4906 ft | 251 kts | 202° |
| 2026-05-08 10:10 | 41.95802 | 21.64768 | 5540 ft | 254 kts | 204° |
| 2026-05-08 10:10 | 41.94242 | 21.63641 | 6131 ft | 258 kts | 218° |
| 2026-05-08 10:10 | 41.93150 | 21.61716 | 6615 ft | 269 kts | 246° |
| 2026-05-08 10:10 | 41.92592 | 21.59278 | 7025 ft | 277 kts | 252° |
| 2026-05-08 10:11 | 41.92034 | 21.56775 | 7600 ft | 282 kts | 251° |
| 2026-05-08 10:11 | 41.91451 | 21.54253 | 8558 ft | 285 kts | 251° |
| 2026-05-08 10:11 | 41.90851 | 21.51692 | 9510 ft | 290 kts | 251° |
| 2026-05-08 10:11 | 41.90237 | 21.49086 | 10267 ft | 300 kts | 251° |
| 2026-05-08 10:12 | 41.89580 | 21.46318 | 10581 ft | 324 kts | 250° |
| 2026-05-08 10:12 | 41.88883 | 21.43383 | 11188 ft | 334 kts | 250° |
| 2026-05-08 10:12 | 41.88175 | 21.40392 | 12015 ft | 338 kts | 250° |
| 2026-05-08 10:12 | 41.87459 | 21.37362 | 12853 ft | 341 kts | 250° |
| 2026-05-08 10:13 | 41.86742 | 21.34313 | 13690 ft | 344 kts | 249° |
| 2026-05-08 10:13 | 41.86015 | 21.31230 | 14437 ft | 347 kts | 249° |
| 2026-05-08 10:13 | 41.85286 | 21.28153 | 15216 ft | 347 kts | 250° |
| 2026-05-08 10:13 | 41.84556 | 21.25071 | 15987 ft | 348 kts | 250° |
| 2026-05-08 10:14 | 41.83826 | 21.21980 | 16764 ft | 348 kts | 250° |
| 2026-05-08 10:14 | 41.83090 | 21.18881 | 17534 ft | 349 kts | 250° |
| 2026-05-08 10:14 | 41.82349 | 21.15780 | 18303 ft | 350 kts | 250° |
| 2026-05-08 10:14 | 41.81606 | 21.12671 | 18911 ft | 352 kts | 250° |
| 2026-05-08 10:15 | 41.80857 | 21.09538 | 19499 ft | 354 kts | 250° |
| 2026-05-08 10:15 | 41.80096 | 21.06382 | 20053 ft | 358 kts | 250° |
| 2026-05-08 10:15 | 41.79320 | 21.03189 | 20606 ft | 362 kts | 250° |
| 2026-05-08 10:15 | 41.78536 | 20.99973 | 21124 ft | 365 kts | 250° |
| 2026-05-08 10:16 | 41.77748 | 20.96724 | 21669 ft | 369 kts | 252° |
| 2026-05-08 10:16 | 41.77402 | 20.93304 | 22184 ft | 376 kts | 271° |
| 2026-05-08 10:16 | 41.77964 | 20.89859 | 22704 ft | 385 kts | 290° |
| 2026-05-08 10:16 | 41.79402 | 20.86783 | 23229 ft | 396 kts | 309° |
| 2026-05-08 10:17 | 41.81551 | 20.84424 | 23757 ft | 405 kts | 324° |
| 2026-05-08 10:17 | 41.83958 | 20.82429 | 24182 ft | 409 kts | 325° |
| 2026-05-08 10:17 | 41.86396 | 20.80445 | 24614 ft | 411 kts | 325° |
| 2026-05-08 10:17 | 41.88798 | 20.78358 | 25037 ft | 412 kts | 320° |
| 2026-05-08 10:18 | 41.91088 | 20.76017 | 25452 ft | 415 kts | 320° |
| 2026-05-08 10:18 | 41.93417 | 20.73712 | 25878 ft | 418 kts | 321° |
| 2026-05-08 10:18 | 41.95781 | 20.71423 | 26296 ft | 421 kts | 322° |
| 2026-05-08 10:18 | 41.98180 | 20.69119 | 26679 ft | 424 kts | 322° |
| 2026-05-08 10:19 | 42.00581 | 20.66804 | 27071 ft | 426 kts | 321° |
| 2026-05-08 10:19 | 42.02983 | 20.64470 | 27461 ft | 429 kts | 321° |
| 2026-05-08 10:19 | 42.05414 | 20.62101 | 27852 ft | 432 kts | 322° |
| 2026-05-08 10:20 | 42.10328 | 20.57367 | 28621 ft | 437 kts | 322° |
| 2026-05-08 10:20 | 42.12811 | 20.54979 | 29003 ft | 440 kts | 322° |
| 2026-05-08 10:20 | 42.15306 | 20.52573 | 29378 ft | 443 kts | 322° |
| 2026-05-08 10:20 | 42.17813 | 20.50149 | 29744 ft | 445 kts | 322° |
| 2026-05-08 10:21 | 42.20337 | 20.47700 | 30105 ft | 448 kts | 322° |
| 2026-05-08 10:21 | 42.22874 | 20.45233 | 30412 ft | 451 kts | 322° |
| 2026-05-08 10:21 | 42.25422 | 20.42752 | 30701 ft | 453 kts | 322° |
| 2026-05-08 10:21 | 42.27983 | 20.40259 | 30988 ft | 455 kts | 322° |
| 2026-05-08 10:22 | 42.30561 | 20.37751 | 31275 ft | 458 kts | 322° |
| 2026-05-08 10:22 | 42.33148 | 20.35230 | 31549 ft | 460 kts | 322° |
| 2026-05-08 10:22 | 42.35747 | 20.32691 | 31866 ft | 461 kts | 321° |
| 2026-05-08 10:22 | 42.38348 | 20.30148 | 32263 ft | 461 kts | 321° |
| 2026-05-08 10:23 | 42.40940 | 20.27610 | 32659 ft | 460 kts | 321° |
| 2026-05-08 10:23 | 42.43532 | 20.25069 | 33063 ft | 459 kts | 321° |
| 2026-05-08 10:23 | 42.46116 | 20.22533 | 33466 ft | 459 kts | 321° |
| 2026-05-08 10:23 | 42.48698 | 20.20000 | 33872 ft | 458 kts | 321° |
| 2026-05-08 10:24 | 42.51275 | 20.17475 | 34234 ft | 457 kts | 321° |
| 2026-05-08 10:24 | 42.53849 | 20.14948 | 34586 ft | 456 kts | 321° |
| 2026-05-08 10:24 | 42.56410 | 20.12426 | 34938 ft | 454 kts | 320° |
| 2026-05-08 10:24 | 42.58957 | 20.09910 | 35294 ft | 452 kts | 320° |
| 2026-05-08 10:25 | 42.61498 | 20.07399 | 35641 ft | 451 kts | 320° |
| 2026-05-08 10:25 | 42.64030 | 20.04899 | 35973 ft | 449 kts | 320° |
| 2026-05-08 10:25 | 42.66552 | 20.02407 | 36320 ft | 448 kts | 320° |
| 2026-05-08 10:25 | 42.69065 | 19.99923 | 36653 ft | 446 kts | 320° |
| 2026-05-08 10:26 | 42.71569 | 19.97440 | 36953 ft | 445 kts | 319° |
| 2026-05-08 10:26 | 42.74065 | 19.94959 | 37264 ft | 444 kts | 319° |
| 2026-05-08 10:26 | 42.76554 | 19.92487 | 37550 ft | 443 kts | 319° |
| 2026-05-08 10:26 | 42.79042 | 19.90015 | 37835 ft | 442 kts | 319° |
| 2026-05-08 10:27 | 42.81526 | 19.87546 | 38007 ft | 442 kts | 319° |
| 2026-05-08 10:27 | 42.86478 | 19.82621 | 38037 ft | 440 kts | 319° |
| 2026-05-08 10:28 | 42.91405 | 19.77691 | 38029 ft | 439 kts | 319° |
| 2026-05-08 10:28 | 42.96337 | 19.72758 | 38032 ft | 440 kts | 319° |
| 2026-05-08 10:29 | 43.01273 | 19.67822 | 38035 ft | 439 kts | 319° |
| 2026-05-08 10:29 | 43.06199 | 19.62881 | 38034 ft | 439 kts | 319° |
| 2026-05-08 10:30 | 43.11119 | 19.57919 | 38035 ft | 439 kts | 319° |
| 2026-05-08 10:30 | 43.16039 | 19.52954 | 38045 ft | 440 kts | 319° |
| 2026-05-08 10:31 | 43.20966 | 19.47977 | 38050 ft | 440 kts | 319° |
| 2026-05-08 10:31 | 43.25893 | 19.42993 | 38056 ft | 440 kts | 319° |
| 2026-05-08 10:32 | 43.30783 | 19.38031 | 38060 ft | 440 kts | 319° |
| 2026-05-08 10:32 | 43.35708 | 19.33030 | 38069 ft | 440 kts | 319° |
| 2026-05-08 10:33 | 43.40629 | 19.28014 | 38070 ft | 440 kts | 319° |
| 2026-05-08 10:33 | 43.45571 | 19.22956 | 38071 ft | 440 kts | 319° |
| 2026-05-08 10:34 | 43.49654 | 19.18773 | 38072 ft | 440 kts | 319° |
| 2026-05-08 10:34 | 43.55369 | 19.12921 | 38076 ft | 440 kts | 319° |
| 2026-05-08 10:35 | 43.59486 | 19.08697 | 38076 ft | 440 kts | 319° |
| 2026-05-08 10:35 | 43.65203 | 19.02824 | 38082 ft | 441 kts | 319° |
| 2026-05-08 10:36 | 43.69315 | 18.98584 | 38087 ft | 441 kts | 319° |
| 2026-05-08 10:36 | 43.74223 | 18.93506 | 38092 ft | 441 kts | 319° |
| 2026-05-08 10:37 | 43.79127 | 18.88413 | 38092 ft | 440 kts | 319° |
| 2026-05-08 10:37 | 43.84027 | 18.83327 | 38098 ft | 440 kts | 319° |
| 2026-05-08 10:38 | 43.88924 | 18.78233 | 38103 ft | 440 kts | 319° |
| 2026-05-08 10:38 | 43.93826 | 18.73140 | 38102 ft | 440 kts | 318° |
| 2026-05-08 10:39 | 43.98716 | 18.68033 | 38098 ft | 440 kts | 318° |
| 2026-05-08 10:39 | 44.03606 | 18.62911 | 38103 ft | 440 kts | 318° |
| 2026-05-08 10:40 | 44.08492 | 18.57785 | 38109 ft | 440 kts | 318° |
| 2026-05-08 10:40 | 44.13372 | 18.52648 | 38101 ft | 440 kts | 318° |
| 2026-05-08 10:41 | 44.18251 | 18.47516 | 38104 ft | 440 kts | 318° |
| 2026-05-08 10:41 | 44.23135 | 18.42371 | 38107 ft | 440 kts | 318° |
| 2026-05-08 10:42 | 44.28005 | 18.37213 | 38105 ft | 440 kts | 318° |
| 2026-05-08 10:42 | 44.32870 | 18.32048 | 38109 ft | 440 kts | 318° |
| 2026-05-08 10:43 | 44.37742 | 18.26874 | 38104 ft | 440 kts | 318° |
| 2026-05-08 10:43 | 44.42610 | 18.21693 | 38109 ft | 440 kts | 318° |
| 2026-05-08 10:44 | 44.47478 | 18.16507 | 38105 ft | 440 kts | 318° |
| 2026-05-08 10:44 | 44.52338 | 18.11305 | 38099 ft | 440 kts | 317° |
| 2026-05-08 10:45 | 44.57199 | 18.06089 | 38102 ft | 440 kts | 318° |
| 2026-05-08 10:45 | 44.62065 | 18.00872 | 38103 ft | 440 kts | 318° |
| 2026-05-08 10:46 | 44.66931 | 17.95646 | 38104 ft | 440 kts | 317° |
| 2026-05-08 10:46 | 44.71791 | 17.90399 | 38104 ft | 440 kts | 317° |
| 2026-05-08 10:47 | 44.76647 | 17.85143 | 38106 ft | 441 kts | 317° |
| 2026-05-08 10:47 | 44.81508 | 17.79888 | 38106 ft | 441 kts | 317° |
| 2026-05-08 10:48 | 44.86365 | 17.74616 | 38107 ft | 441 kts | 317° |
| 2026-05-08 10:48 | 44.91212 | 17.69326 | 38108 ft | 441 kts | 317° |
| 2026-05-08 10:49 | 44.96058 | 17.64037 | 38101 ft | 441 kts | 317° |
| 2026-05-08 10:49 | 45.00912 | 17.58747 | 38104 ft | 441 kts | 317° |
| 2026-05-08 10:50 | 45.05761 | 17.53440 | 38102 ft | 441 kts | 317° |
| 2026-05-08 10:50 | 45.10606 | 17.48118 | 38096 ft | 441 kts | 317° |
| 2026-05-08 10:51 | 45.15448 | 17.42794 | 38107 ft | 441 kts | 317° |
| 2026-05-08 10:51 | 45.20291 | 17.37451 | 38109 ft | 441 kts | 316° |
| 2026-05-08 10:52 | 45.25108 | 17.32132 | 38108 ft | 442 kts | 316° |
| 2026-05-08 10:52 | 45.29956 | 17.26770 | 38111 ft | 442 kts | 316° |
| 2026-05-08 10:53 | 45.34795 | 17.21389 | 38114 ft | 442 kts | 316° |
| 2026-05-08 10:53 | 45.39636 | 17.16004 | 38113 ft | 442 kts | 316° |
| 2026-05-08 10:54 | 45.44477 | 17.10613 | 38115 ft | 442 kts | 316° |
| 2026-05-08 10:54 | 45.49315 | 17.05208 | 38114 ft | 442 kts | 316° |
| 2026-05-08 10:55 | 45.54144 | 16.99792 | 38114 ft | 442 kts | 316° |
| 2026-05-08 10:55 | 45.58976 | 16.94369 | 38116 ft | 442 kts | 316° |
| 2026-05-08 10:56 | 45.63810 | 16.88942 | 38114 ft | 442 kts | 316° |
| 2026-05-08 10:56 | 45.68640 | 16.83509 | 38111 ft | 442 kts | 316° |
| 2026-05-08 10:57 | 45.73465 | 16.78058 | 38116 ft | 442 kts | 316° |
| 2026-05-08 10:57 | 45.80686 | 16.69862 | 38119 ft | 441 kts | 315° |
| 2026-05-08 10:58 | 45.85494 | 16.64391 | 38118 ft | 441 kts | 315° |
| 2026-05-08 10:58 | 45.90298 | 16.58915 | 38120 ft | 441 kts | 315° |
| 2026-05-08 10:59 | 45.95106 | 16.53426 | 38116 ft | 441 kts | 315° |
| 2026-05-08 10:59 | 45.99909 | 16.47939 | 38113 ft | 441 kts | 315° |
| 2026-05-08 11:00 | 46.04714 | 16.42433 | 38118 ft | 441 kts | 315° |
| 2026-05-08 11:00 | 46.09513 | 16.36920 | 38100 ft | 441 kts | 315° |
| 2026-05-08 11:01 | 46.14310 | 16.31387 | 38108 ft | 442 kts | 315° |
| 2026-05-08 11:01 | 46.19116 | 16.25850 | 38109 ft | 442 kts | 315° |
| 2026-05-08 11:02 | 46.26315 | 16.17520 | 38109 ft | 442 kts | 315° |
| 2026-05-08 11:03 | 46.31110 | 16.11931 | 38107 ft | 443 kts | 315° |
| 2026-05-08 11:03 | 46.35907 | 16.06337 | 38105 ft | 443 kts | 315° |
| 2026-05-08 11:04 | 46.40713 | 16.00737 | 38104 ft | 444 kts | 315° |
| 2026-05-08 11:04 | 46.45517 | 15.95107 | 38106 ft | 444 kts | 315° |
| 2026-05-08 11:05 | 46.50330 | 15.89474 | 38111 ft | 444 kts | 315° |
| 2026-05-08 11:05 | 46.55136 | 15.83842 | 38108 ft | 444 kts | 315° |
| 2026-05-08 11:06 | 46.59943 | 15.78184 | 38109 ft | 444 kts | 315° |
| 2026-05-08 11:06 | 46.64739 | 15.72519 | 38112 ft | 444 kts | 315° |
| 2026-05-08 11:07 | 46.69528 | 15.66831 | 38116 ft | 444 kts | 314° |
| 2026-05-08 11:07 | 46.73773 | 15.60451 | 38097 ft | 437 kts | 305° |
| 2026-05-08 11:08 | 46.77792 | 15.53801 | 38084 ft | 437 kts | 305° |
| 2026-05-08 11:08 | 46.81814 | 15.47145 | 38086 ft | 437 kts | 305° |
| 2026-05-08 11:09 | 46.85828 | 15.40459 | 38087 ft | 438 kts | 305° |
| 2026-05-08 11:09 | 46.89836 | 15.33764 | 38086 ft | 438 kts | 305° |
| 2026-05-08 11:10 | 46.93841 | 15.27052 | 38090 ft | 438 kts | 305° |
| 2026-05-08 11:10 | 46.97849 | 15.20332 | 38086 ft | 438 kts | 305° |
| 2026-05-08 11:11 | 47.01862 | 15.13594 | 38091 ft | 439 kts | 305° |
| 2026-05-08 11:11 | 47.05873 | 15.06838 | 38103 ft | 439 kts | 305° |
| 2026-05-08 11:12 | 47.09880 | 15.00071 | 38119 ft | 439 kts | 305° |
| 2026-05-08 11:12 | 47.13885 | 14.93297 | 38117 ft | 439 kts | 305° |
| 2026-05-08 11:13 | 47.17885 | 14.86518 | 38123 ft | 439 kts | 305° |
| 2026-05-08 11:13 | 47.21881 | 14.79720 | 38121 ft | 439 kts | 305° |
| 2026-05-08 11:14 | 47.25862 | 14.72909 | 38115 ft | 439 kts | 305° |
| 2026-05-08 11:14 | 47.29845 | 14.66088 | 38113 ft | 439 kts | 305° |
| 2026-05-08 11:15 | 47.33836 | 14.59253 | 38110 ft | 440 kts | 305° |
| 2026-05-08 11:15 | 47.37819 | 14.52402 | 38110 ft | 440 kts | 305° |
| 2026-05-08 11:16 | 47.41125 | 14.46699 | 38107 ft | 440 kts | 305° |
| 2026-05-08 11:16 | 47.45106 | 14.39820 | 38108 ft | 441 kts | 305° |
| 2026-05-08 11:17 | 47.49085 | 14.32940 | 38092 ft | 440 kts | 305° |
| 2026-05-08 11:17 | 47.53053 | 14.26044 | 38087 ft | 439 kts | 305° |
| 2026-05-08 11:18 | 47.57005 | 14.19151 | 38086 ft | 439 kts | 305° |
| 2026-05-08 11:18 | 47.60953 | 14.12258 | 38090 ft | 439 kts | 305° |
| 2026-05-08 11:19 | 47.64899 | 14.05354 | 38092 ft | 439 kts | 305° |
| 2026-05-08 11:19 | 47.68846 | 13.98447 | 38096 ft | 439 kts | 305° |
| 2026-05-08 11:20 | 47.72787 | 13.91542 | 38098 ft | 439 kts | 305° |
| 2026-05-08 11:20 | 47.76717 | 13.84616 | 38099 ft | 438 kts | 305° |
| 2026-05-08 11:21 | 47.80638 | 13.77682 | 38100 ft | 438 kts | 305° |
| 2026-05-08 11:21 | 47.84548 | 13.70743 | 38102 ft | 438 kts | 305° |
| 2026-05-08 11:22 | 47.88460 | 13.63798 | 38103 ft | 438 kts | 305° |
| 2026-05-08 11:22 | 47.92368 | 13.56842 | 38101 ft | 438 kts | 305° |
| 2026-05-08 11:23 | 47.96268 | 13.49873 | 38101 ft | 437 kts | 305° |
| 2026-05-08 11:23 | 48.00165 | 13.42893 | 38110 ft | 438 kts | 305° |
| 2026-05-08 11:24 | 48.04058 | 13.35904 | 38103 ft | 437 kts | 305° |
| 2026-05-08 11:24 | 48.07945 | 13.28912 | 38107 ft | 437 kts | 305° |
| 2026-05-08 11:25 | 48.11834 | 13.21906 | 38107 ft | 437 kts | 305° |
| 2026-05-08 11:25 | 48.15709 | 13.14888 | 38111 ft | 437 kts | 305° |
| 2026-05-08 11:26 | 48.19578 | 13.07852 | 38109 ft | 437 kts | 305° |
| 2026-05-08 11:26 | 48.23442 | 13.00810 | 38114 ft | 437 kts | 306° |
| 2026-05-08 11:27 | 48.27437 | 12.93919 | 38027 ft | 435 kts | 308° |
| 2026-05-08 11:27 | 48.31489 | 12.87183 | 38120 ft | 434 kts | 308° |
| 2026-05-08 11:28 | 48.35510 | 12.80443 | 38125 ft | 433 kts | 308° |
| 2026-05-08 11:28 | 48.39491 | 12.73665 | 38127 ft | 432 kts | 307° |
| 2026-05-08 11:29 | 48.43456 | 12.66882 | 38123 ft | 431 kts | 307° |
| 2026-05-08 11:29 | 48.47418 | 12.60097 | 38123 ft | 431 kts | 307° |
| 2026-05-08 11:30 | 48.51376 | 12.53304 | 38121 ft | 431 kts | 307° |
| 2026-05-08 11:30 | 48.55330 | 12.46504 | 38121 ft | 431 kts | 307° |
| 2026-05-08 11:31 | 48.59282 | 12.39684 | 38120 ft | 431 kts | 308° |
| 2026-05-08 11:31 | 48.63218 | 12.32869 | 38121 ft | 431 kts | 307° |
| 2026-05-08 11:32 | 48.67162 | 12.26020 | 38120 ft | 432 kts | 307° |
| 2026-05-08 11:32 | 48.68926 | 12.22390 | 38121 ft | 427 kts | 296° |
| 2026-05-08 11:32 | 48.70393 | 12.18485 | 38117 ft | 426 kts | 296° |
| 2026-05-08 11:33 | 48.73295 | 12.10657 | 38113 ft | 427 kts | 296° |
| 2026-05-08 11:33 | 48.76287 | 12.02856 | 38111 ft | 428 kts | 298° |
| 2026-05-08 11:34 | 48.79361 | 11.95140 | 38115 ft | 428 kts | 298° |
| 2026-05-08 11:34 | 48.82423 | 11.87398 | 38116 ft | 428 kts | 298° |
| 2026-05-08 11:35 | 48.85461 | 11.79611 | 38116 ft | 428 kts | 297° |
| 2026-05-08 11:35 | 48.88480 | 11.71816 | 38120 ft | 428 kts | 298° |
| 2026-05-08 11:36 | 48.91499 | 11.64010 | 38119 ft | 429 kts | 297° |
| 2026-05-08 11:36 | 48.94522 | 11.56188 | 38119 ft | 429 kts | 298° |
| 2026-05-08 11:37 | 48.97535 | 11.48364 | 38121 ft | 429 kts | 297° |
| 2026-05-08 11:37 | 49.00544 | 11.40498 | 37763 ft | 430 kts | 297° |
| 2026-05-08 11:37 | 49.02053 | 11.36561 | 37046 ft | 431 kts | 297° |
| 2026-05-08 11:38 | 49.03567 | 11.32618 | 36262 ft | 433 kts | 298° |
| 2026-05-08 11:38 | 49.05095 | 11.28631 | 35457 ft | 436 kts | 297° |
| 2026-05-08 11:38 | 49.06620 | 11.24638 | 34894 ft | 433 kts | 297° |
| 2026-05-08 11:38 | 49.08122 | 11.20694 | 34345 ft | 430 kts | 297° |
| 2026-05-08 11:39 | 49.09618 | 11.16761 | 33734 ft | 427 kts | 297° |
| 2026-05-08 11:39 | 49.11096 | 11.12867 | 33192 ft | 422 kts | 297° |
| 2026-05-08 11:39 | 49.12554 | 11.09021 | 32637 ft | 417 kts | 297° |
| 2026-05-08 11:39 | 49.13998 | 11.05209 | 32107 ft | 413 kts | 297° |
| 2026-05-08 11:40 | 49.15405 | 11.01483 | 31591 ft | 409 kts | 297° |
| 2026-05-08 11:40 | 49.16820 | 10.97729 | 31079 ft | 406 kts | 297° |
| 2026-05-08 11:40 | 49.18215 | 10.94022 | 30555 ft | 402 kts | 297° |
| 2026-05-08 11:40 | 49.19608 | 10.90323 | 30020 ft | 399 kts | 297° |
| 2026-05-08 11:41 | 49.20984 | 10.86670 | 29491 ft | 394 kts | 297° |
| 2026-05-08 11:41 | 49.22284 | 10.83215 | 29020 ft | 389 kts | 297° |
| 2026-05-08 11:41 | 49.23620 | 10.79661 | 28551 ft | 383 kts | 297° |
| 2026-05-08 11:41 | 49.24921 | 10.76193 | 28088 ft | 378 kts | 297° |
| 2026-05-08 11:42 | 49.26237 | 10.72692 | 27641 ft | 373 kts | 297° |
| 2026-05-08 11:42 | 49.27529 | 10.69274 | 27197 ft | 368 kts | 297° |
| 2026-05-08 11:42 | 49.28804 | 10.65911 | 26766 ft | 363 kts | 298° |
| 2026-05-08 11:42 | 49.30065 | 10.62592 | 26340 ft | 359 kts | 298° |
| 2026-05-08 11:43 | 49.31296 | 10.59346 | 25918 ft | 355 kts | 298° |
| 2026-05-08 11:43 | 49.32525 | 10.56088 | 25476 ft | 352 kts | 297° |
| 2026-05-08 11:43 | 49.33740 | 10.52853 | 25033 ft | 349 kts | 297° |
| 2026-05-08 11:43 | 49.34947 | 10.49637 | 24582 ft | 347 kts | 298° |
| 2026-05-08 11:44 | 49.36187 | 10.46408 | 24207 ft | 348 kts | 302° |
| 2026-05-08 11:44 | 49.37578 | 10.43389 | 24101 ft | 353 kts | 303° |
| 2026-05-08 11:44 | 49.38995 | 10.40310 | 24023 ft | 354 kts | 303° |
| 2026-05-08 11:44 | 49.40407 | 10.37213 | 23920 ft | 354 kts | 303° |
| 2026-05-08 11:45 | 49.41814 | 10.34119 | 23675 ft | 353 kts | 303° |
| 2026-05-08 11:45 | 49.43214 | 10.31035 | 23399 ft | 352 kts | 303° |
| 2026-05-08 11:45 | 49.44612 | 10.27952 | 23124 ft | 350 kts | 303° |
| 2026-05-08 11:45 | 49.46001 | 10.24891 | 22847 ft | 349 kts | 303° |
| 2026-05-08 11:46 | 49.47386 | 10.21838 | 22567 ft | 347 kts | 303° |
| 2026-05-08 11:46 | 49.48764 | 10.18800 | 22308 ft | 346 kts | 303° |
| 2026-05-08 11:46 | 49.50136 | 10.15773 | 22048 ft | 344 kts | 303° |
| 2026-05-08 11:46 | 49.51500 | 10.12755 | 21787 ft | 343 kts | 303° |
| 2026-05-08 11:47 | 49.52862 | 10.09738 | 21525 ft | 342 kts | 303° |
| 2026-05-08 11:47 | 49.54216 | 10.06743 | 21266 ft | 340 kts | 303° |
| 2026-05-08 11:47 | 49.55563 | 10.03758 | 21008 ft | 339 kts | 303° |
| 2026-05-08 11:47 | 49.56903 | 10.00781 | 20753 ft | 338 kts | 303° |
| 2026-05-08 11:48 | 49.58237 | 9.97814 | 20500 ft | 336 kts | 303° |
| 2026-05-08 11:48 | 49.59571 | 9.94845 | 20250 ft | 335 kts | 303° |
| 2026-05-08 11:48 | 49.60893 | 9.91904 | 20000 ft | 334 kts | 303° |
| 2026-05-08 11:48 | 49.62211 | 9.88968 | 19755 ft | 333 kts | 303° |
| 2026-05-08 11:49 | 49.63526 | 9.86044 | 19509 ft | 331 kts | 303° |
| 2026-05-08 11:49 | 49.64836 | 9.83131 | 19260 ft | 330 kts | 303° |
| 2026-05-08 11:49 | 49.66141 | 9.80216 | 19018 ft | 329 kts | 303° |
| 2026-05-08 11:49 | 49.67437 | 9.77312 | 18785 ft | 327 kts | 303° |
| 2026-05-08 11:50 | 49.68723 | 9.74427 | 18551 ft | 326 kts | 303° |
| 2026-05-08 11:50 | 49.70005 | 9.71546 | 18294 ft | 325 kts | 303° |
| 2026-05-08 11:50 | 49.71281 | 9.68674 | 18023 ft | 324 kts | 303° |
| 2026-05-08 11:50 | 49.72550 | 9.65813 | 17694 ft | 321 kts | 303° |
| 2026-05-08 11:51 | 49.73815 | 9.62966 | 17267 ft | 320 kts | 303° |
| 2026-05-08 11:51 | 49.75069 | 9.60138 | 16856 ft | 318 kts | 303° |
| 2026-05-08 11:51 | 49.76316 | 9.57322 | 16478 ft | 317 kts | 303° |
| 2026-05-08 11:51 | 49.77559 | 9.54518 | 16110 ft | 316 kts | 303° |
| 2026-05-08 11:52 | 49.78796 | 9.51722 | 15729 ft | 314 kts | 303° |
| 2026-05-08 11:52 | 49.80030 | 9.48927 | 15347 ft | 313 kts | 303° |
| 2026-05-08 11:52 | 49.81253 | 9.46154 | 14975 ft | 312 kts | 303° |
| 2026-05-08 11:52 | 49.82474 | 9.43376 | 14618 ft | 311 kts | 303° |
| 2026-05-08 11:53 | 49.83686 | 9.40615 | 14266 ft | 310 kts | 303° |
| 2026-05-08 11:53 | 49.84775 | 9.37754 | 13895 ft | 307 kts | 290° |
| 2026-05-08 11:53 | 49.85211 | 9.34540 | 13509 ft | 305 kts | 273° |
| 2026-05-08 11:53 | 49.85335 | 9.31281 | 13102 ft | 304 kts | 273° |
| 2026-05-08 11:54 | 49.85448 | 9.28023 | 12719 ft | 302 kts | 272° |
| 2026-05-08 11:54 | 49.85555 | 9.24775 | 12348 ft | 301 kts | 272° |
| 2026-05-08 11:54 | 49.85660 | 9.21550 | 11978 ft | 299 kts | 272° |
| 2026-05-08 11:54 | 49.85765 | 9.18328 | 11608 ft | 297 kts | 272° |
| 2026-05-08 11:55 | 49.85869 | 9.15147 | 11248 ft | 296 kts | 272° |
| 2026-05-08 11:55 | 49.85975 | 9.11978 | 10855 ft | 294 kts | 272° |
| 2026-05-08 11:55 | 49.86078 | 9.08825 | 10479 ft | 293 kts | 272° |
| 2026-05-08 11:55 | 49.86178 | 9.05677 | 10114 ft | 291 kts | 272° |
| 2026-05-08 11:56 | 49.86275 | 9.02593 | 9906 ft | 283 kts | 272° |
| 2026-05-08 11:56 | 49.86370 | 8.99557 | 9557 ft | 280 kts | 272° |
| 2026-05-08 11:56 | 49.86465 | 8.96557 | 9176 ft | 279 kts | 272° |
| 2026-05-08 11:56 | 49.86560 | 8.93551 | 8793 ft | 277 kts | 272° |
| 2026-05-08 11:57 | 49.86651 | 8.90576 | 8408 ft | 275 kts | 272° |
| 2026-05-08 11:57 | 49.86740 | 8.87626 | 8041 ft | 274 kts | 272° |
| 2026-05-08 11:57 | 49.86831 | 8.84690 | 7638 ft | 272 kts | 272° |
| 2026-05-08 11:57 | 49.86919 | 8.81763 | 7231 ft | 271 kts | 271° |
| 2026-05-08 11:58 | 49.87002 | 8.78835 | 6804 ft | 271 kts | 272° |
| 2026-05-08 11:58 | 49.87084 | 8.75935 | 6396 ft | 270 kts | 272° |
| 2026-05-08 11:58 | 49.87140 | 8.74013 | 6109 ft | 269 kts | 272° |
| 2026-05-08 11:59 | 49.87305 | 8.68227 | 5489 ft | 268 kts | 272° |
| 2026-05-08 11:59 | 49.87387 | 8.65337 | 5232 ft | 268 kts | 272° |
| 2026-05-08 11:59 | 49.87468 | 8.62456 | 5049 ft | 267 kts | 272° |
| 2026-05-08 11:59 | 49.87549 | 8.59580 | 4996 ft | 267 kts | 272° |
| 2026-05-08 12:00 | 49.87630 | 8.56698 | 5012 ft | 268 kts | 272° |
| 2026-05-08 12:00 | 49.87708 | 8.53825 | 5008 ft | 268 kts | 272° |
| 2026-05-08 12:00 | 49.87786 | 8.50934 | 5012 ft | 268 kts | 272° |
| 2026-05-08 12:00 | 49.87863 | 8.48050 | 5010 ft | 268 kts | 272° |
| 2026-05-08 12:01 | 49.87941 | 8.45167 | 5014 ft | 268 kts | 272° |
| 2026-05-08 12:01 | 49.88017 | 8.42283 | 5002 ft | 268 kts | 272° |
| 2026-05-08 12:01 | 49.88092 | 8.39390 | 5025 ft | 268 kts | 272° |
| 2026-05-08 12:01 | 49.88168 | 8.36511 | 5025 ft | 268 kts | 272° |
| 2026-05-08 12:02 | 49.88241 | 8.33625 | 5026 ft | 268 kts | 272° |
| 2026-05-08 12:02 | 49.88151 | 8.30749 | 5025 ft | 267 kts | 261° |
| 2026-05-08 12:02 | 49.87722 | 8.28039 | 4953 ft | 252 kts | 250° |
| 2026-05-08 12:02 | 49.87113 | 8.25552 | 4815 ft | 241 kts | 249° |
| 2026-05-08 12:03 | 49.86677 | 8.23093 | 4590 ft | 236 kts | 266° |
| 2026-05-08 12:03 | 49.86911 | 8.20615 | 4279 ft | 234 kts | 293° |
| 2026-05-08 12:03 | 49.87839 | 8.18584 | 4043 ft | 230 kts | 320° |
| 2026-05-08 12:03 | 49.89227 | 8.17360 | 4011 ft | 232 kts | 342° |
| 2026-05-08 12:04 | 49.90812 | 8.16940 | 4020 ft | 232 kts | 2° |
| 2026-05-08 12:04 | 49.92344 | 8.17589 | 4022 ft | 230 kts | 28° |
| 2026-05-08 12:04 | 49.93673 | 8.18973 | 4018 ft | 230 kts | 40° |
| 2026-05-08 12:04 | 49.94632 | 8.20926 | 4028 ft | 229 kts | 62° |
| 2026-05-08 12:05 | 49.95370 | 8.23103 | 4014 ft | 222 kts | 66° |
| 2026-05-08 12:05 | 49.95950 | 8.25247 | 4008 ft | 210 kts | 69° |
| 2026-05-08 12:05 | 49.96464 | 8.27341 | 3850 ft | 206 kts | 70° |
| 2026-05-08 12:05 | 49.96957 | 8.29374 | 3624 ft | 198 kts | 70° |
| 2026-05-08 12:06 | 49.97438 | 8.31363 | 3355 ft | 197 kts | 70° |
| 2026-05-08 12:06 | 49.97916 | 8.33335 | 3092 ft | 193 kts | 71° |
| 2026-05-08 12:06 | 49.98388 | 8.35289 | 2825 ft | 192 kts | 70° |
| 2026-05-08 12:06 | 49.98850 | 8.37198 | 2562 ft | 185 kts | 70° |
| 2026-05-08 12:07 | 49.99287 | 8.39010 | 2344 ft | 175 kts | 69° |
| 2026-05-08 12:07 | 49.99700 | 8.40719 | 2098 ft | 161 kts | 70° |
| 2026-05-08 12:07 | 50.00070 | 8.42252 | 1899 ft | 144 kts | 70° |
| 2026-05-08 12:07 | 50.00411 | 8.43668 | 1709 ft | 136 kts | 70° |
| 2026-05-08 12:08 | 50.00737 | 8.45031 | 1477 ft | 134 kts | 70° |
| 2026-05-08 12:08 | 50.01065 | 8.46373 | 1343 ft | 134 kts | 69° |
| 2026-05-08 12:08 | 50.01391 | 8.47717 | 1091 ft | 132 kts | 69° |
| 2026-05-08 12:08 | 50.01711 | 8.49045 | 921 ft | 130 kts | 70° |
| 2026-05-08 12:09 | 50.02024 | 8.50372 | 752 ft | 130 kts | 70° |
| 2026-05-08 12:09 | 50.02341 | 8.51685 | 592 ft | 129 kts | 72° |
| 2026-05-08 12:09 | 50.02657 | 8.52997 | 418 ft | 130 kts | 71° |
| 2026-05-08 12:09 | 50.02955 | 8.54260 | 331 ft | 110 kts | 72° |
| 2026-05-08 12:10 | 50.03163 | 8.55128 | 354 ft | 64 kts | 69° |
| 2026-05-08 12:10 | 50.03305 | 8.55639 | 349 ft | 42 kts | 56° |
| 2026-05-08 12:10 | 50.03498 | 8.55936 | 352 ft | 38 kts | 40° |
| 2026-05-08 12:10 | 50.03667 | 8.56199 | 358 ft | 33 kts | 63° |
| 2026-05-08 12:11 | 50.03746 | 8.56536 | 357 ft | 33 kts | 69° |
| 2026-05-08 12:11 | 50.03825 | 8.56868 | 358 ft | 32 kts | 71° |
| 2026-05-08 12:11 | 50.03903 | 8.57194 | 361 ft | 31 kts | 70° |
| 2026-05-08 12:11 | 50.03978 | 8.57506 | 366 ft | 28 kts | 69° |
| 2026-05-08 12:12 | 50.04042 | 8.57772 | 369 ft | 22 kts | 66° |
| 2026-05-08 12:12 | 50.04139 | 8.57795 | 366 ft | 14 kts | 352° |
| 2026-05-08 12:12 | 50.04244 | 8.57739 | 364 ft | 21 kts | 339° |
| 2026-05-08 12:12 | 50.04400 | 8.57640 | 368 ft | 22 kts | 318° |
| 2026-05-08 12:13 | 50.04393 | 8.57403 | 365 ft | 25 kts | 251° |
| 2026-05-08 12:13 | 50.04330 | 8.57138 | 361 ft | 27 kts | 250° |
| 2026-05-08 12:13 | 50.04276 | 8.56898 | 362 ft | 20 kts | 257° |
| 2026-05-08 12:13 | 50.04229 | 8.56692 | 360 ft | 18 kts | 264° |
| 2026-05-08 12:14 | 50.04293 | 8.56606 | 358 ft | 12 kts | 341° |
| 2026-05-08 12:14 | 50.04363 | 8.56554 | 359 ft | 11 kts | 314° |
| 2026-05-08 12:14 | 50.04361 | 8.56452 | 361 ft | 10 kts | 249° |
| 2026-05-08 12:14 | 50.04317 | 8.56261 | 357 ft | 26 kts | 248° |
| 2026-05-08 12:15 | 50.04311 | 8.56080 | 360 ft | 15 kts | 319° |
| 2026-05-08 12:15 | 50.04397 | 8.56029 | 361 ft | 12 kts | 353° |
| 2026-05-08 12:15 | 50.04450 | 8.56110 | 359 ft | 14 kts | 69° |
| 2026-05-08 12:15 | 50.04495 | 8.56295 | 357 ft | 23 kts | 70° |
| 2026-05-08 12:16 | 50.04597 | 8.56475 | 360 ft | 23 kts | 21° |
| 2026-05-08 12:16 | 50.04716 | 8.56577 | 361 ft | 17 kts | 58° |
| 2026-05-08 12:16 | 50.04794 | 8.56684 | 365 ft | 8 kts | 30° |
| 2026-05-08 12:16 | 50.04796 | 8.56729 | 363 ft | 4 kts | 104° |
| 2026-05-08 12:17 | 50.04788 | 8.56762 | 360 ft | 2 kts | 113° |
| 2026-05-08 12:17 | 50.04785 | 8.56771 | 362 ft | 0 kts | 114° |